sensor_id;sensor_type;location;lat;lon;timestamp;P1;durP1;ratioP1;P2;durP2;ratioP2
65039;SDS011;51606;45.000;38.612;2024-03-06T05:14:58;5.65;;;3.70;;
65039;SDS011;51606;45.000;38.612;2024-03-06T05:17:25;6.68;;;4.43;;
65039;SDS011;51606;45.000;38.612;2024-03-06T05:19:52;10.07;;;4.32;;
65039;SDS011;51606;45.000;38.612;2024-03-06T05:22:20;12.38;;;5.05;;
65039;SDS011;51606;45.000;38.612;2024-03-06T05:24:46;11.68;;;4.53;;
65039;SDS011;51606;45.000;38.612;2024-03-06T05:27:13;25.00;;;5.38;;
65039;SDS011;51606;45.000;38.612;2024-03-06T05:29:43;17.70;;;6.00;;
65039;SDS011;51606;45.000;38.612;2024-03-06T05:32:09;11.95;;;4.30;;
65039;SDS011;51606;45.000;38.612;2024-03-06T05:34:36;6.97;;;3.85;;
65039;SDS011;51606;45.000;38.612;2024-03-06T05:37:02;10.18;;;4.80;;
65039;SDS011;51606;45.000;38.612;2024-03-06T05:39:32;11.18;;;4.88;;
65039;SDS011;51606;45.000;38.612;2024-03-06T05:42:00;5.78;;;4.15;;
65039;SDS011;51606;45.000;38.612;2024-03-06T05:44:30;9.20;;;4.82;;
65039;SDS011;51606;45.000;38.612;2024-03-06T05:46:58;9.45;;;5.22;;
65039;SDS011;51606;45.000;38.612;2024-03-06T05:49:25;9.27;;;5.00;;
65039;SDS011;51606;45.000;38.612;2024-03-06T05:51:51;6.13;;;4.18;;
65039;SDS011;51606;45.000;38.612;2024-03-06T05:54:19;8.30;;;4.43;;
65039;SDS011;51606;45.000;38.612;2024-03-06T05:56:49;8.63;;;5.22;;
65039;SDS011;51606;45.000;38.612;2024-03-06T05:59:20;16.67;;;5.15;;
65039;SDS011;51606;45.000;38.612;2024-03-06T06:01:46;9.38;;;5.45;;
65039;SDS011;51606;45.000;38.612;2024-03-06T06:04:13;11.18;;;4.60;;
65039;SDS011;51606;45.000;38.612;2024-03-06T06:06:40;13.98;;;4.90;;
65039;SDS011;51606;45.000;38.612;2024-03-06T06:09:06;6.55;;;4.57;;
65039;SDS011;51606;45.000;38.612;2024-03-06T06:11:38;11.88;;;5.63;;
65039;SDS011;51606;45.000;38.612;2024-03-06T06:14:05;17.05;;;6.28;;
65039;SDS011;51606;45.000;38.612;2024-03-06T06:16:38;13.43;;;4.93;;
65039;SDS011;51606;45.000;38.612;2024-03-06T06:19:06;16.75;;;5.07;;
65039;SDS011;51606;45.000;38.612;2024-03-06T06:21:32;11.85;;;4.68;;
65039;SDS011;51606;45.000;38.612;2024-03-06T06:24:01;8.68;;;5.65;;
65039;SDS011;51606;45.000;38.612;2024-03-06T06:26:32;11.18;;;5.13;;
65039;SDS011;51606;45.000;38.612;2024-03-06T06:28:59;13.52;;;6.22;;
65039;SDS011;51606;45.000;38.612;2024-03-06T06:31:25;14.73;;;4.65;;
65039;SDS011;51606;45.000;38.612;2024-03-06T06:33:52;21.65;;;5.53;;
65039;SDS011;51606;45.000;38.612;2024-03-06T06:36:19;10.77;;;5.22;;
65039;SDS011;51606;45.000;38.612;2024-03-06T06:38:46;12.88;;;5.75;;
65039;SDS011;51606;45.000;38.612;2024-03-06T06:41:16;13.27;;;6.15;;
65039;SDS011;51606;45.000;38.612;2024-03-06T06:43:43;15.65;;;6.05;;
65039;SDS011;51606;45.000;38.612;2024-03-06T06:46:09;16.83;;;5.28;;
65039;SDS011;51606;45.000;38.612;2024-03-06T06:48:36;12.63;;;5.35;;
65039;SDS011;51606;45.000;38.612;2024-03-06T06:51:02;12.95;;;5.65;;
65039;SDS011;51606;45.000;38.612;2024-03-06T06:53:32;11.80;;;6.13;;
65039;SDS011;51606;45.000;38.612;2024-03-06T06:55:58;14.68;;;7.80;;
65039;SDS011;51606;45.000;38.612;2024-03-06T06:58:24;19.38;;;8.68;;
65039;SDS011;51606;45.000;38.612;2024-03-06T07:00:54;21.90;;;6.57;;
65039;SDS011;51606;45.000;38.612;2024-03-06T07:03:20;17.00;;;7.03;;
65039;SDS011;51606;45.000;38.612;2024-03-06T07:05:48;14.40;;;5.63;;
65039;SDS011;51606;45.000;38.612;2024-03-06T07:08:15;17.95;;;5.95;;
65039;SDS011;51606;45.000;38.612;2024-03-06T07:10:42;18.05;;;6.15;;
65039;SDS011;51606;45.000;38.612;2024-03-06T07:13:08;14.68;;;6.60;;
65039;SDS011;51606;45.000;38.612;2024-03-06T07:15:35;15.65;;;6.53;;
65039;SDS011;51606;45.000;38.612;2024-03-06T07:18:01;12.38;;;6.22;;
65039;SDS011;51606;45.000;38.612;2024-03-06T07:20:28;12.73;;;6.88;;
65039;SDS011;51606;45.000;38.612;2024-03-06T07:22:57;15.82;;;6.07;;
65039;SDS011;51606;45.000;38.612;2024-03-06T07:25:23;12.10;;;5.82;;
65039;SDS011;51606;45.000;38.612;2024-03-06T07:27:50;10.27;;;6.18;;
65039;SDS011;51606;45.000;38.612;2024-03-06T07:30:16;11.45;;;6.30;;
65039;SDS011;51606;45.000;38.612;2024-03-06T07:32:42;11.00;;;5.70;;
65039;SDS011;51606;45.000;38.612;2024-03-06T07:35:09;10.20;;;5.85;;
65039;SDS011;51606;45.000;38.612;2024-03-06T07:37:35;20.55;;;7.00;;
65039;SDS011;51606;45.000;38.612;2024-03-06T07:40:02;30.50;;;5.38;;
65039;SDS011;51606;45.000;38.612;2024-03-06T07:42:30;10.70;;;5.63;;
65039;SDS011;51606;45.000;38.612;2024-03-06T07:44:57;16.65;;;5.97;;
65039;SDS011;51606;45.000;38.612;2024-03-06T07:47:24;11.52;;;5.80;;
65039;SDS011;51606;45.000;38.612;2024-03-06T07:49:50;23.38;;;6.50;;
65039;SDS011;51606;45.000;38.612;2024-03-06T07:52:16;10.20;;;6.07;;
65039;SDS011;51606;45.000;38.612;2024-03-06T07:54:43;9.43;;;5.43;;
65039;SDS011;51606;45.000;38.612;2024-03-06T07:57:09;10.88;;;5.45;;
65039;SDS011;51606;45.000;38.612;2024-03-06T07:59:35;14.57;;;6.07;;
65039;SDS011;51606;45.000;38.612;2024-03-06T08:02:02;15.27;;;5.85;;
65039;SDS011;51606;45.000;38.612;2024-03-06T08:04:29;14.85;;;7.55;;
65039;SDS011;51606;45.000;38.612;2024-03-06T08:07:00;13.60;;;5.38;;
65039;SDS011;51606;45.000;38.612;2024-03-06T08:09:26;20.88;;;5.43;;
65039;SDS011;51606;45.000;38.612;2024-03-06T08:11:54;14.35;;;6.22;;
65039;SDS011;51606;45.000;38.612;2024-03-06T08:14:21;8.93;;;5.00;;
65039;SDS011;51606;45.000;38.612;2024-03-06T08:16:47;21.50;;;5.70;;
65039;SDS011;51606;45.000;38.612;2024-03-06T08:19:14;21.00;;;6.72;;
65039;SDS011;51606;45.000;38.612;2024-03-06T08:21:40;11.45;;;5.40;;
65039;SDS011;51606;45.000;38.612;2024-03-06T08:24:06;16.02;;;7.93;;
65039;SDS011;51606;45.000;38.612;2024-03-06T08:26:33;14.43;;;5.70;;
65039;SDS011;51606;45.000;38.612;2024-03-06T08:28:59;31.00;;;6.20;;
65039;SDS011;51606;45.000;38.612;2024-03-06T08:31:26;9.15;;;4.93;;
65039;SDS011;51606;45.000;38.612;2024-03-06T08:33:52;13.68;;;6.25;;
65039;SDS011;51606;45.000;38.612;2024-03-06T08:36:19;20.77;;;6.03;;
65039;SDS011;51606;45.000;38.612;2024-03-06T08:38:46;14.30;;;6.55;;
65039;SDS011;51606;45.000;38.612;2024-03-06T08:41:12;12.88;;;6.05;;
65039;SDS011;51606;45.000;38.612;2024-03-06T08:43:39;10.95;;;5.82;;
65039;SDS011;51606;45.000;38.612;2024-03-06T08:46:08;12.75;;;6.20;;
65039;SDS011;51606;45.000;38.612;2024-03-06T08:48:34;11.38;;;5.72;;
65039;SDS011;51606;45.000;38.612;2024-03-06T08:51:01;9.55;;;5.32;;
65039;SDS011;51606;45.000;38.612;2024-03-06T08:53:28;24.27;;;6.53;;
65039;SDS011;51606;45.000;38.612;2024-03-06T08:55:55;16.90;;;6.30;;
65039;SDS011;51606;45.000;38.612;2024-03-06T08:58:21;14.27;;;5.65;;
65039;SDS011;51606;45.000;38.612;2024-03-06T09:00:47;10.88;;;4.90;;
65039;SDS011;51606;45.000;38.612;2024-03-06T09:03:14;25.13;;;7.10;;
65039;SDS011;51606;45.000;38.612;2024-03-06T09:05:41;14.05;;;7.00;;
65039;SDS011;51606;45.000;38.612;2024-03-06T09:08:07;19.33;;;5.85;;
65039;SDS011;51606;45.000;38.612;2024-03-06T09:10:35;15.40;;;5.90;;
65039;SDS011;51606;45.000;38.612;2024-03-06T09:13:01;13.18;;;5.63;;
65039;SDS011;51606;45.000;38.612;2024-03-06T09:15:28;11.07;;;5.35;;
65039;SDS011;51606;45.000;38.612;2024-03-06T09:17:54;19.15;;;6.03;;
65039;SDS011;51606;45.000;38.612;2024-03-06T09:20:20;22.35;;;6.47;;
65039;SDS011;51606;45.000;38.612;2024-03-06T09:22:49;10.43;;;4.93;;
65039;SDS011;51606;45.000;38.612;2024-03-06T09:25:19;13.68;;;5.82;;
65039;SDS011;51606;45.000;38.612;2024-03-06T09:27:46;15.35;;;5.35;;
65039;SDS011;51606;45.000;38.612;2024-03-06T09:30:12;30.17;;;5.90;;
65039;SDS011;51606;45.000;38.612;2024-03-06T09:32:39;11.48;;;5.72;;
65039;SDS011;51606;45.000;38.612;2024-03-06T09:35:07;10.13;;;5.30;;
65039;SDS011;51606;45.000;38.612;2024-03-06T09:37:36;24.50;;;4.82;;
65039;SDS011;51606;45.000;38.612;2024-03-06T09:40:06;10.07;;;5.65;;
65039;SDS011;51606;45.000;38.612;2024-03-06T09:42:35;12.00;;;5.32;;
65039;SDS011;51606;45.000;38.612;2024-03-06T09:45:04;29.48;;;5.55;;
65039;SDS011;51606;45.000;38.612;2024-03-06T09:47:31;10.90;;;3.95;;
65039;SDS011;51606;45.000;38.612;2024-03-06T09:49:59;7.90;;;4.38;;
65039;SDS011;51606;45.000;38.612;2024-03-06T09:52:28;13.20;;;5.43;;
65039;SDS011;51606;45.000;38.612;2024-03-06T09:54:56;9.63;;;4.95;;
65039;SDS011;51606;45.000;38.612;2024-03-06T09:57:23;8.55;;;4.95;;
65039;SDS011;51606;45.000;38.612;2024-03-06T09:59:50;14.57;;;5.60;;
65039;SDS011;51606;45.000;38.612;2024-03-06T10:05:03;16.10;;;6.72;;
65039;SDS011;51606;45.000;38.612;2024-03-06T10:07:31;31.50;;;6.80;;
65039;SDS011;51606;45.000;38.612;2024-03-06T10:09:57;10.88;;;4.70;;
65039;SDS011;51606;45.000;38.612;2024-03-06T10:12:27;13.85;;;4.85;;
65039;SDS011;51606;45.000;38.612;2024-03-06T10:14:54;10.20;;;4.18;;
65039;SDS011;51606;45.000;38.612;2024-03-06T10:17:22;10.60;;;5.35;;
65039;SDS011;51606;45.000;38.612;2024-03-06T10:19:49;9.88;;;5.55;;
65039;SDS011;51606;45.000;38.612;2024-03-06T10:22:24;10.88;;;4.93;;
65039;SDS011;51606;45.000;38.612;2024-03-06T10:24:56;10.88;;;5.88;;
65039;SDS011;51606;45.000;38.612;2024-03-06T10:27:23;8.07;;;4.55;;
65039;SDS011;51606;45.000;38.612;2024-03-06T10:30:04;8.27;;;4.13;;
65039;SDS011;51606;45.000;38.612;2024-03-06T10:32:36;15.60;;;6.43;;
65039;SDS011;51606;45.000;38.612;2024-03-06T10:35:03;11.73;;;5.35;;
65039;SDS011;51606;45.000;38.612;2024-03-06T10:37:34;13.90;;;5.35;;
65039;SDS011;51606;45.000;38.612;2024-03-06T10:40:02;10.68;;;5.20;;
65039;SDS011;51606;45.000;38.612;2024-03-06T10:42:34;24.30;;;6.40;;
65039;SDS011;51606;45.000;38.612;2024-03-06T10:45:02;13.38;;;5.80;;
65039;SDS011;51606;45.000;38.612;2024-03-06T10:47:34;30.70;;;6.05;;
65039;SDS011;51606;45.000;38.612;2024-03-06T10:50:05;15.23;;;5.00;;
65039;SDS011;51606;45.000;38.612;2024-03-06T10:52:38;11.55;;;6.13;;
65039;SDS011;51606;45.000;38.612;2024-03-06T10:55:05;11.90;;;5.85;;
65039;SDS011;51606;45.000;38.612;2024-03-06T10:57:32;13.32;;;5.85;;
65039;SDS011;51606;45.000;38.612;2024-03-06T10:59:59;23.80;;;7.10;;
65039;SDS011;51606;45.000;38.612;2024-03-06T11:02:26;22.92;;;7.72;;
65039;SDS011;51606;45.000;38.612;2024-03-06T11:04:54;9.20;;;5.20;;
65039;SDS011;51606;45.000;38.612;2024-03-06T11:07:25;12.77;;;6.32;;
65039;SDS011;51606;45.000;38.612;2024-03-06T11:09:57;11.32;;;5.43;;
65039;SDS011;51606;45.000;38.612;2024-03-06T11:12:37;11.18;;;5.40;;
65039;SDS011;51606;45.000;38.612;2024-03-06T11:15:08;15.60;;;6.05;;
65039;SDS011;51606;45.000;38.612;2024-03-06T11:17:38;14.98;;;6.80;;
65039;SDS011;51606;45.000;38.612;2024-03-06T11:20:08;19.42;;;5.82;;
65039;SDS011;51606;45.000;38.612;2024-03-06T11:28:34;27.52;;;5.28;;
65039;SDS011;51606;45.000;38.612;2024-03-06T11:31:04;16.02;;;5.10;;
65039;SDS011;51606;45.000;38.612;2024-03-06T11:33:35;8.63;;;4.07;;
65039;SDS011;51606;45.000;38.612;2024-03-06T11:36:21;11.10;;;5.15;;
65039;SDS011;51606;45.000;38.612;2024-03-06T11:38:59;6.47;;;4.25;;
65039;SDS011;51606;45.000;38.612;2024-03-06T11:44:18;12.02;;;5.22;;
65039;SDS011;51606;45.000;38.612;2024-03-06T11:46:47;6.85;;;3.95;;
65039;SDS011;51606;45.000;38.612;2024-03-06T11:49:15;8.35;;;4.53;;
65039;SDS011;51606;45.000;38.612;2024-03-06T11:51:46;8.48;;;4.30;;
65039;SDS011;51606;45.000;38.612;2024-03-06T11:54:24;18.67;;;5.10;;
65039;SDS011;51606;45.000;38.612;2024-03-06T11:56:55;17.95;;;4.57;;
65039;SDS011;51606;45.000;38.612;2024-03-06T11:59:29;7.22;;;3.72;;
65039;SDS011;51606;45.000;38.612;2024-03-06T12:02:01;7.10;;;4.22;;
65039;SDS011;51606;45.000;38.612;2024-03-06T12:04:31;3.72;;;2.53;;
65039;SDS011;51606;45.000;38.612;2024-03-06T12:07:06;7.72;;;3.50;;
65039;SDS011;51606;45.000;38.612;2024-03-06T12:09:34;10.55;;;4.57;;
65039;SDS011;51606;45.000;38.612;2024-03-06T12:12:07;9.15;;;4.65;;
65039;SDS011;51606;45.000;38.612;2024-03-06T12:14:42;16.70;;;5.18;;
65039;SDS011;51606;45.000;38.612;2024-03-06T12:17:12;11.05;;;3.72;;
65039;SDS011;51606;45.000;38.612;2024-03-06T12:19:42;12.30;;;3.70;;
65039;SDS011;51606;45.000;38.612;2024-03-06T12:22:11;12.63;;;4.43;;
65039;SDS011;51606;45.000;38.612;2024-03-06T12:24:38;14.15;;;4.10;;
65039;SDS011;51606;45.000;38.612;2024-03-06T12:27:07;7.80;;;3.03;;
65039;SDS011;51606;45.000;38.612;2024-03-06T12:29:34;6.50;;;3.28;;
65039;SDS011;51606;45.000;38.612;2024-03-06T12:32:02;7.50;;;3.67;;
65039;SDS011;51606;45.000;38.612;2024-03-06T12:34:32;13.80;;;4.03;;
65039;SDS011;51606;45.000;38.612;2024-03-06T12:37:10;6.43;;;3.47;;
65039;SDS011;51606;45.000;38.612;2024-03-06T12:39:37;6.18;;;3.75;;
65039;SDS011;51606;45.000;38.612;2024-03-06T12:42:12;8.00;;;3.83;;
65039;SDS011;51606;45.000;38.612;2024-03-06T12:44:38;18.95;;;3.88;;
65039;SDS011;51606;45.000;38.612;2024-03-06T12:47:07;12.07;;;4.25;;
65039;SDS011;51606;45.000;38.612;2024-03-06T12:49:34;5.53;;;3.08;;
65039;SDS011;51606;45.000;38.612;2024-03-06T12:52:00;3.35;;;2.38;;
65039;SDS011;51606;45.000;38.612;2024-03-06T12:54:26;8.00;;;3.55;;
65039;SDS011;51606;45.000;38.612;2024-03-06T12:56:53;5.40;;;3.47;;
65039;SDS011;51606;45.000;38.612;2024-03-06T12:59:19;7.13;;;3.35;;
65039;SDS011;51606;45.000;38.612;2024-03-06T13:01:45;7.93;;;3.05;;
65039;SDS011;51606;45.000;38.612;2024-03-06T13:04:13;26.38;;;3.10;;
65039;SDS011;51606;45.000;38.612;2024-03-06T13:06:40;12.32;;;3.28;;
65039;SDS011;51606;45.000;38.612;2024-03-06T13:09:08;6.80;;;3.45;;
65039;SDS011;51606;45.000;38.612;2024-03-06T13:11:35;8.27;;;3.13;;
65039;SDS011;51606;45.000;38.612;2024-03-06T13:14:04;23.15;;;4.38;;
65039;SDS011;51606;45.000;38.612;2024-03-06T13:16:31;4.72;;;3.10;;
65039;SDS011;51606;45.000;38.612;2024-03-06T13:18:59;18.40;;;4.00;;
65039;SDS011;51606;45.000;38.612;2024-03-06T13:21:29;4.82;;;2.85;;
65039;SDS011;51606;45.000;38.612;2024-03-06T13:23:58;16.00;;;4.22;;
65039;SDS011;51606;45.000;38.612;2024-03-06T13:26:26;49.25;;;4.75;;
65039;SDS011;51606;45.000;38.612;2024-03-06T13:28:55;8.38;;;3.30;;
65039;SDS011;51606;45.000;38.612;2024-03-06T13:31:22;7.30;;;2.72;;
65039;SDS011;51606;45.000;38.612;2024-03-06T13:34:05;14.20;;;4.43;;
65039;SDS011;51606;45.000;38.612;2024-03-06T13:36:33;9.80;;;4.43;;
65039;SDS011;51606;45.000;38.612;2024-03-06T13:39:00;6.80;;;3.90;;
65039;SDS011;51606;45.000;38.612;2024-03-06T13:41:29;5.13;;;3.67;;
65039;SDS011;51606;45.000;38.612;2024-03-06T13:43:55;14.15;;;5.85;;
65039;SDS011;51606;45.000;38.612;2024-03-06T13:46:22;14.55;;;6.45;;
65039;SDS011;51606;45.000;38.612;2024-03-06T13:48:54;10.50;;;4.88;;
65039;SDS011;51606;45.000;38.612;2024-03-06T13:51:20;10.38;;;4.53;;
65039;SDS011;51606;45.000;38.612;2024-03-06T13:53:49;11.30;;;4.75;;
65039;SDS011;51606;45.000;38.612;2024-03-06T13:56:15;12.68;;;3.28;;
65039;SDS011;51606;45.000;38.612;2024-03-06T13:58:41;12.10;;;4.18;;
65039;SDS011;51606;45.000;38.612;2024-03-06T14:01:08;7.10;;;3.63;;
65039;SDS011;51606;45.000;38.612;2024-03-06T14:03:34;8.27;;;3.70;;
65039;SDS011;51606;45.000;38.612;2024-03-06T14:06:03;7.80;;;3.92;;
65039;SDS011;51606;45.000;38.612;2024-03-06T14:08:30;8.63;;;4.15;;
65039;SDS011;51606;45.000;38.612;2024-03-06T14:10:57;11.02;;;4.00;;
65039;SDS011;51606;45.000;38.612;2024-03-06T14:13:23;25.27;;;3.90;;
65039;SDS011;51606;45.000;38.612;2024-03-06T14:15:49;12.02;;;5.65;;
65039;SDS011;51606;45.000;38.612;2024-03-06T14:18:16;16.98;;;5.57;;
65039;SDS011;51606;45.000;38.612;2024-03-06T14:20:42;23.52;;;5.78;;
65039;SDS011;51606;45.000;38.612;2024-03-06T14:23:08;9.65;;;4.75;;
65039;SDS011;51606;45.000;38.612;2024-03-06T14:25:34;11.23;;;5.05;;
65039;SDS011;51606;45.000;38.612;2024-03-06T14:28:03;12.57;;;5.32;;
65039;SDS011;51606;45.000;38.612;2024-03-06T14:30:29;17.02;;;6.00;;
65039;SDS011;51606;45.000;38.612;2024-03-06T14:32:56;13.25;;;5.30;;
65039;SDS011;51606;45.000;38.612;2024-03-06T14:35:22;14.77;;;4.68;;
65039;SDS011;51606;45.000;38.612;2024-03-06T14:37:50;6.97;;;4.38;;
65039;SDS011;51606;45.000;38.612;2024-03-06T14:40:16;11.32;;;5.80;;
65039;SDS011;51606;45.000;38.612;2024-03-06T14:42:43;8.45;;;5.20;;
65039;SDS011;51606;45.000;38.612;2024-03-06T14:45:09;13.63;;;5.28;;
65039;SDS011;51606;45.000;38.612;2024-03-06T14:47:36;25.15;;;6.10;;
65039;SDS011;51606;45.000;38.612;2024-03-06T14:50:02;10.77;;;5.35;;
65039;SDS011;51606;45.000;38.612;2024-03-06T14:52:29;28.88;;;9.18;;
65039;SDS011;51606;45.000;38.612;2024-03-06T14:54:55;17.98;;;7.07;;
65039;SDS011;51606;45.000;38.612;2024-03-06T14:57:21;22.05;;;7.18;;
65039;SDS011;51606;45.000;38.612;2024-03-06T14:59:49;15.00;;;5.90;;
65039;SDS011;51606;45.000;38.612;2024-03-06T15:02:16;12.98;;;5.93;;
65039;SDS011;51606;45.000;38.612;2024-03-06T15:04:42;26.15;;;6.15;;
65039;SDS011;51606;45.000;38.612;2024-03-06T15:07:08;12.52;;;6.05;;
65039;SDS011;51606;45.000;38.612;2024-03-06T15:09:35;12.57;;;5.00;;
65039;SDS011;51606;45.000;38.612;2024-03-06T15:12:02;9.88;;;5.03;;
65039;SDS011;51606;45.000;38.612;2024-03-06T15:14:30;19.30;;;5.20;;
65039;SDS011;51606;45.000;38.612;2024-03-06T15:16:57;12.32;;;6.03;;
65039;SDS011;51606;45.000;38.612;2024-03-06T15:19:23;8.48;;;5.40;;
65039;SDS011;51606;45.000;38.612;2024-03-06T15:21:50;6.95;;;4.05;;
65039;SDS011;51606;45.000;38.612;2024-03-06T15:24:16;9.60;;;4.43;;
65039;SDS011;51606;45.000;38.612;2024-03-06T15:26:43;13.93;;;4.85;;
65039;SDS011;51606;45.000;38.612;2024-03-06T15:29:09;6.72;;;4.18;;
65039;SDS011;51606;45.000;38.612;2024-03-06T15:31:37;19.83;;;4.50;;
65039;SDS011;51606;45.000;38.612;2024-03-06T15:34:04;7.50;;;3.67;;
65039;SDS011;51606;45.000;38.612;2024-03-06T15:36:30;6.38;;;3.83;;
65039;SDS011;51606;45.000;38.612;2024-03-06T15:38:57;6.07;;;3.78;;
65039;SDS011;51606;45.000;38.612;2024-03-06T15:41:24;6.20;;;3.65;;
65039;SDS011;51606;45.000;38.612;2024-03-06T15:43:50;8.18;;;3.67;;
65039;SDS011;51606;45.000;38.612;2024-03-06T15:46:17;6.70;;;3.40;;
65039;SDS011;51606;45.000;38.612;2024-03-06T15:48:46;7.93;;;4.50;;
65039;SDS011;51606;45.000;38.612;2024-03-06T15:51:12;12.15;;;3.42;;
65039;SDS011;51606;45.000;38.612;2024-03-06T15:53:39;8.25;;;4.88;;
65039;SDS011;51606;45.000;38.612;2024-03-06T15:56:05;5.90;;;4.38;;
65039;SDS011;51606;45.000;38.612;2024-03-06T15:58:31;6.78;;;3.72;;
65039;SDS011;51606;45.000;38.612;2024-03-06T16:00:58;11.85;;;4.55;;
65039;SDS011;51606;45.000;38.612;2024-03-06T16:03:24;9.48;;;4.07;;
65039;SDS011;51606;45.000;38.612;2024-03-06T16:05:51;8.25;;;4.50;;
65039;SDS011;51606;45.000;38.612;2024-03-06T16:08:17;12.52;;;5.63;;
65039;SDS011;51606;45.000;38.612;2024-03-06T16:10:44;9.35;;;4.20;;
65039;SDS011;51606;45.000;38.612;2024-03-06T16:13:11;11.88;;;4.72;;
65039;SDS011;51606;45.000;38.612;2024-03-06T16:15:37;9.05;;;2.85;;
65039;SDS011;51606;45.000;38.612;2024-03-06T16:18:03;5.57;;;3.53;;
65039;SDS011;51606;45.000;38.612;2024-03-06T16:20:32;6.60;;;3.15;;
65039;SDS011;51606;45.000;38.612;2024-03-06T16:22:58;4.85;;;2.53;;
65039;SDS011;51606;45.000;38.612;2024-03-06T16:25:25;12.15;;;3.63;;
65039;SDS011;51606;45.000;38.612;2024-03-06T16:27:51;23.85;;;5.00;;
65039;SDS011;51606;45.000;38.612;2024-03-06T16:30:17;6.38;;;3.78;;
65039;SDS011;51606;45.000;38.612;2024-03-06T16:32:44;4.60;;;3.92;;
65039;SDS011;51606;45.000;38.612;2024-03-06T16:35:10;7.13;;;4.43;;
65039;SDS011;51606;45.000;38.612;2024-03-06T16:37:36;6.25;;;4.68;;
65039;SDS011;51606;45.000;38.612;2024-03-06T16:40:03;10.15;;;4.95;;
65039;SDS011;51606;45.000;38.612;2024-03-06T16:42:30;8.30;;;4.90;;
65039;SDS011;51606;45.000;38.612;2024-03-06T16:44:56;12.75;;;5.47;;
65039;SDS011;51606;45.000;38.612;2024-03-06T16:47:22;7.32;;;4.75;;
65039;SDS011;51606;45.000;38.612;2024-03-06T16:49:49;15.50;;;5.57;;
65039;SDS011;51606;45.000;38.612;2024-03-06T16:52:16;7.13;;;4.53;;
65039;SDS011;51606;45.000;38.612;2024-03-06T16:54:42;15.40;;;4.68;;
65039;SDS011;51606;45.000;38.612;2024-03-06T16:57:09;10.65;;;5.20;;
65039;SDS011;51606;45.000;38.612;2024-03-06T16:59:36;7.47;;;4.75;;
65039;SDS011;51606;45.000;38.612;2024-03-06T17:02:03;8.82;;;4.60;;
65039;SDS011;51606;45.000;38.612;2024-03-06T17:04:30;5.47;;;2.85;;
65039;SDS011;51606;45.000;38.612;2024-03-06T17:06:56;11.90;;;2.80;;
65039;SDS011;51606;45.000;38.612;2024-03-06T17:09:23;5.35;;;3.28;;
65039;SDS011;51606;45.000;38.612;2024-03-06T17:11:49;5.13;;;2.85;;
65039;SDS011;51606;45.000;38.612;2024-03-06T17:14:15;10.98;;;3.35;;
65039;SDS011;51606;45.000;38.612;2024-03-06T17:16:42;15.70;;;3.63;;
65039;SDS011;51606;45.000;38.612;2024-03-06T17:19:08;4.75;;;2.00;;
65039;SDS011;51606;45.000;38.612;2024-03-06T17:21:34;7.10;;;2.30;;
65039;SDS011;51606;45.000;38.612;2024-03-06T17:24:03;5.70;;;2.72;;
65039;SDS011;51606;45.000;38.612;2024-03-06T17:26:31;2.65;;;1.85;;
65039;SDS011;51606;45.000;38.612;2024-03-06T17:28:59;1.98;;;1.33;;
65039;SDS011;51606;45.000;38.612;2024-03-06T17:31:25;20.30;;;2.38;;
65039;SDS011;51606;45.000;38.612;2024-03-06T17:33:52;2.67;;;1.48;;
65039;SDS011;51606;45.000;38.612;2024-03-06T17:36:18;5.40;;;2.50;;
65039;SDS011;51606;45.000;38.612;2024-03-06T17:38:44;3.42;;;2.08;;
65039;SDS011;51606;45.000;38.612;2024-03-06T17:41:13;3.78;;;2.38;;
65039;SDS011;51606;45.000;38.612;2024-03-06T17:43:39;3.10;;;2.13;;
65039;SDS011;51606;45.000;38.612;2024-03-06T17:46:05;1.90;;;1.70;;
65039;SDS011;51606;45.000;38.612;2024-03-06T17:48:32;5.53;;;2.75;;
65039;SDS011;51606;45.000;38.612;2024-03-06T17:50:58;2.50;;;1.70;;
65039;SDS011;51606;45.000;38.612;2024-03-06T17:53:25;4.28;;;2.80;;
65039;SDS011;51606;45.000;38.612;2024-03-06T17:55:51;11.20;;;3.47;;
65039;SDS011;51606;45.000;38.612;2024-03-06T17:58:17;2.60;;;2.08;;
65039;SDS011;51606;45.000;38.612;2024-03-06T18:00:44;6.72;;;2.90;;
65039;SDS011;51606;45.000;38.612;2024-03-06T18:03:10;3.10;;;1.70;;
65039;SDS011;51606;45.000;38.612;2024-03-06T18:05:36;7.47;;;3.88;;
65039;SDS011;51606;45.000;38.612;2024-03-06T18:08:03;6.97;;;2.60;;
65039;SDS011;51606;45.000;38.612;2024-03-06T18:10:29;3.65;;;1.65;;
65039;SDS011;51606;45.000;38.612;2024-03-06T18:12:56;9.93;;;3.38;;
65039;SDS011;51606;45.000;38.612;2024-03-06T18:15:22;5.53;;;3.08;;
65039;SDS011;51606;45.000;38.612;2024-03-06T18:17:49;5.22;;;3.22;;
65039;SDS011;51606;45.000;38.612;2024-03-06T18:20:15;5.63;;;3.10;;
65039;SDS011;51606;45.000;38.612;2024-03-06T18:22:42;4.45;;;2.97;;
65039;SDS011;51606;45.000;38.612;2024-03-06T18:25:08;9.70;;;2.58;;
